Time;durP1;ratioP1;P1;durP2;ratioP2;P2;SDS_P1;SDS_P2;PMS_P1;PMS_P2;Temp;Humidity;BMP_temperature;BMP_pressure;BME280_temperature;BME280_humidity;BME280_pressure;Samples;Min_cycle;Max_cycle;Signal;HPM_P1;HPM_P2
2022/11/29 00:01:39;;;;;;;;;6.00;6.00;;;;;;;;114926;1200;25716;-57
2022/11/29 00:04:08;;;;;;;;;13.00;10.00;;;;;;;;114960;1203;25736;-56
2022/11/29 00:06:37;;;;;;;;;9.00;7.00;;;;;;;;114909;1200;26307;-55
2022/11/29 00:09:07;;;;;;;;;8.50;8.50;;;;;;;;114962;1199;25403;-55
2022/11/29 00:14:25;;;;;;;;;12.67;8.00;;;;;;;;114930;1200;25655;-56
2022/11/29 00:16:58;;;;;;;;;10.50;10.50;;;;;;;;114865;1196;25045;-56
2022/11/29 00:19:26;;;;;;;;;10.00;10.00;;;;;;;;114849;1196;25477;-56
2022/11/29 00:21:55;;;;;;;;;9.67;9.00;;;;;;;;114899;1193;24660;-56
2022/11/29 00:24:23;;;;;;;;;13.00;9.00;;;;;;;;114843;1199;25392;-55
2022/11/29 00:26:51;;;;;;;;;12.67;11.67;;;;;;;;114934;1206;25307;-56
2022/11/29 00:29:20;;;;;;;;;8.00;6.00;;;;;;;;114910;1208;25541;-56
2022/11/29 00:31:48;;;;;;;;;13.00;12.00;;;;;;;;114855;1201;24734;-56
2022/11/29 00:34:17;;;;;;;;;13.50;9.00;;;;;;;;114783;1208;25304;-56
2022/11/29 00:36:45;;;;;;;;;13.50;11.00;;;;;;;;114826;1208;25598;-56
2022/11/29 00:39:15;;;;;;;;;11.00;9.00;;;;;;;;114957;1208;24876;-56
2022/11/29 00:41:43;;;;;;;;;13.00;10.00;;;;;;;;114950;1200;25019;-56
2022/11/29 00:44:14;;;;;;;;;12.00;11.00;;;;;;;;114939;1206;25934;-56
2022/11/29 00:46:48;;;;;;;;;12.00;10.00;;;;;;;;114953;1206;25634;-56
2022/11/29 00:49:16;;;;;;;;;16.00;11.00;;;;;;;;114914;1202;24764;-56
2022/11/29 00:51:45;;;;;;;;;10.50;9.50;;;;;;;;114894;1206;25140;-53
2022/11/29 00:54:14;;;;;;;;;12.00;10.00;;;;;;;;114792;1200;25423;-55
2022/11/29 00:56:43;;;;;;;;;14.00;10.00;;;;;;;;114869;1208;24800;-55
2022/11/29 00:59:11;;;;;;;;;12.33;10.67;;;;;;;;114936;1199;25570;-55
2022/11/29 01:01:39;;;;;;;;;7.50;7.00;;;;;;;;114880;1207;25354;-55
2022/11/29 01:04:08;;;;;;;;;8.00;8.00;;;;;;;;114942;1197;24932;-53
2022/11/29 01:06:36;;;;;;;;;11.00;9.00;;;;;;;;114904;1200;26408;-55
2022/11/29 01:09:05;;;;;;;;;11.00;9.00;;;;;;;;114901;1206;24907;-56
2022/11/29 01:11:33;;;;;;;;;12.00;12.00;;;;;;;;114910;1204;25356;-55
2022/11/29 01:14:02;;;;;;;;;10.00;9.00;;;;;;;;114860;1197;24986;-55
2022/11/29 01:16:32;;;;;;;;;7.00;7.00;;;;;;;;114860;1199;25255;-55
2022/11/29 01:19:00;;;;;;;;;13.00;9.00;;;;;;;;114809;1203;25553;-56
2022/11/29 01:21:29;;;;;;;;;14.00;9.00;;;;;;;;114907;1206;25630;-55
2022/11/29 01:23:58;;;;;;;;;12.00;9.00;;;;;;;;114869;1208;25624;-56
2022/11/29 01:26:29;;;;;;;;;9.50;9.00;;;;;;;;114811;1202;25267;-55
2022/11/29 01:28:58;;;;;;;;;10.00;7.50;;;;;;;;114925;1203;25413;-53
2022/11/29 01:31:32;;;;;;;;;10.00;8.00;;;;;;;;114915;1204;25200;-55
2022/11/29 01:34:02;;;;;;;;;10.00;9.00;;;;;;;;114955;1199;25505;-55
2022/11/29 01:36:31;;;;;;;;;10.00;9.00;;;;;;;;114932;1201;25861;-55
2022/11/29 01:39:01;;;;;;;;;13.00;9.00;;;;;;;;114926;1200;25405;-53
2022/11/29 01:41:32;;;;;;;;;10.33;9.00;;;;;;;;114909;1205;25265;-55
2022/11/29 01:44:29;;;;;;;;;14.00;14.00;;;;;;;;114856;1204;25672;-55
2022/11/29 01:46:57;;;;;;;;;9.00;8.00;;;;;;;;114930;1203;25617;-55
2022/11/29 01:49:38;;;;;;;;;9.50;9.00;;;;;;;;114874;1206;25034;-56
2022/11/29 01:52:09;;;;;;;;;11.00;9.00;;;;;;;;114914;1196;24969;-55
2022/11/29 01:54:42;;;;;;;;;16.00;11.00;;;;;;;;114949;1203;25337;-55
2022/11/29 01:57:12;;;;;;;;;10.00;10.00;;;;;;;;114962;1203;25690;-55
2022/11/29 01:59:45;;;;;;;;;13.00;8.00;;;;;;;;114955;1208;25354;-55
2022/11/29 02:02:36;;;;;;;;;11.00;9.00;;;;;;;;114897;1198;25489;-55
2022/11/29 02:05:06;;;;;;;;;16.00;12.00;;;;;;;;114949;1200;25040;-55
2022/11/29 02:07:34;;;;;;;;;12.00;9.33;;;;;;;;114924;1203;25004;-53
2022/11/29 02:10:04;;;;;;;;;10.50;9.00;;;;;;;;114925;1197;25671;-55
2022/11/29 02:12:50;;;;;;;;;9.00;7.00;;;;;;;;114976;1208;25361;-55
2022/11/29 02:15:21;;;;;;;;;7.00;5.00;;;;;;;;114940;1200;25579;-55
2022/11/29 02:18:08;;;;;;;;;5.00;5.00;;;;;;;;114947;1200;25393;-55
2022/11/29 02:21:13;;;;;;;;;12.50;11.00;;;;;;;;114947;1208;25412;-55
2022/11/29 02:24:00;;;;;;;;;8.00;8.00;;;;;;;;114936;1203;25433;-53
2022/11/29 02:27:05;;;;;;;;;14.00;9.00;;;;;;;;114978;1204;24992;-55
2022/11/29 02:29:58;;;;;;;;;11.50;8.50;;;;;;;;114941;1203;24840;-55
2022/11/29 02:32:58;;;;;;;;;15.00;10.50;;;;;;;;114810;1199;25296;-56
2022/11/29 02:36:09;;;;;;;;;10.00;9.50;;;;;;;;114953;1200;24802;-53
2022/11/29 02:38:53;;;;;;;;;10.00;8.50;;;;;;;;114941;1203;25098;-55
2022/11/29 02:41:49;;;;;;;;;14.50;9.00;;;;;;;;114880;1203;25244;-55
2022/11/29 02:44:53;;;;;;;;;12.00;8.33;;;;;;;;114913;1208;25426;-56
2022/11/29 02:47:30;;;;;;;;;10.67;9.00;;;;;;;;114913;1208;25580;-56
2022/11/29 02:50:27;;;;;;;;;14.00;12.00;;;;;;;;114852;1203;24866;-55
2022/11/29 02:53:04;;;;;;;;;12.00;12.00;;;;;;;;114879;1200;25976;-55
2022/11/29 02:55:44;;;;;;;;;8.00;8.00;;;;;;;;114934;1200;24945;-55
2022/11/29 02:58:18;;;;;;;;;14.00;11.00;;;;;;;;114938;1204;25240;-55
2022/11/29 03:01:08;;;;;;;;;15.50;11.00;;;;;;;;114865;1200;25344;-56
2022/11/29 03:03:49;;;;;;;;;12.00;9.00;;;;;;;;114773;1206;25264;-58
2022/11/29 03:06:36;;;;;;;;;11.00;10.50;;;;;;;;114898;1199;25281;-58
2022/11/29 03:09:41;;;;;;;;;11.00;9.00;;;;;;;;114860;1204;24815;-57
2022/11/29 03:12:25;;;;;;;;;13.67;13.00;;;;;;;;114849;1207;25565;-56
2022/11/29 03:15:01;;;;;;;;;14.00;11.00;;;;;;;;114935;1200;24851;-56
2022/11/29 03:17:54;;;;;;;;;10.67;9.00;;;;;;;;114861;1205;25516;-55
2022/11/29 03:20:53;;;;;;;;;11.00;7.50;;;;;;;;114969;1200;25216;-55
2022/11/29 03:23:56;;;;;;;;;13.00;11.00;;;;;;;;114917;1208;25415;-55
2022/11/29 03:26:31;;;;;;;;;9.00;9.00;;;;;;;;114879;1208;24814;-55
2022/11/29 03:29:06;;;;;;;;;10.00;10.00;;;;;;;;114944;1204;25484;-55
2022/11/29 03:31:41;;;;;;;;;11.00;9.00;;;;;;;;114966;1194;25287;-55
2022/11/29 03:34:47;;;;;;;;;9.00;9.00;;;;;;;;114856;1208;25667;-55
2022/11/29 03:37:47;;;;;;;;;13.50;11.00;;;;;;;;114879;1208;25364;-56
2022/11/29 03:40:21;;;;;;;;;11.00;11.00;;;;;;;;114960;1193;25247;-55
2022/11/29 03:42:55;;;;;;;;;12.00;12.00;;;;;;;;114910;1201;24846;-55
2022/11/29 03:45:34;;;;;;;;;13.50;9.50;;;;;;;;114916;1196;24763;-56
2022/11/29 03:48:06;;;;;;;;;11.33;8.00;;;;;;;;114924;1200;25203;-56
2022/11/29 03:50:45;;;;;;;;;11.00;10.00;;;;;;;;114964;1203;25312;-56
2022/11/29 03:53:31;;;;;;;;;14.00;12.00;;;;;;;;114921;1206;25242;-55
2022/11/29 03:56:04;;;;;;;;;12.67;11.00;;;;;;;;114905;1203;24831;-55
2022/11/29 03:58:54;;;;;;;;;11.50;11.50;;;;;;;;114908;1200;25012;-55
2022/11/29 04:01:59;;;;;;;;;12.50;10.50;;;;;;;;114940;1200;25487;-55
2022/11/29 04:04:53;;;;;;;;;10.00;10.00;;;;;;;;114843;1201;25337;-56
2022/11/29 04:07:46;;;;;;;;;11.00;9.50;;;;;;;;114912;1200;25090;-56
2022/11/29 04:10:55;;;;;;;;;11.50;11.50;;;;;;;;114902;1203;25555;-55
2022/11/29 04:13:45;;;;;;;;;7.50;7.50;;;;;;;;114759;1208;24798;-55
2022/11/29 04:16:42;;;;;;;;;8.50;6.50;;;;;;;;114943;1200;25131;-55
2022/11/29 04:20:01;;;;;;;;;9.00;6.00;;;;;;;;114931;1203;25341;-56
2022/11/29 04:22:39;;;;;;;;;7.50;7.00;;;;;;;;114807;1205;24918;-55
2022/11/29 04:25:39;;;;;;;;;8.67;7.00;;;;;;;;114929;1200;24928;-55
2022/11/29 04:28:32;;;;;;;;;9.00;7.50;;;;;;;;114942;1201;24912;-55
2022/11/29 04:31:28;;;;;;;;;10.50;8.00;;;;;;;;114873;1200;25238;-55
2022/11/29 04:34:12;;;;;;;;;12.00;10.00;;;;;;;;114904;1200;25333;-55
2022/11/29 04:36:45;;;;;;;;;8.00;7.00;;;;;;;;114859;1208;26443;-55
2022/11/29 04:39:41;;;;;;;;;9.50;7.00;;;;;;;;114954;1195;26028;-55
2022/11/29 04:42:35;;;;;;;;;11.00;11.00;;;;;;;;114905;1208;25461;-55
2022/11/29 04:45:38;;;;;;;;;10.00;8.50;;;;;;;;114837;1203;24973;-55
2022/11/29 04:48:18;;;;;;;;;9.00;8.00;;;;;;;;114899;1200;25674;-56
2022/11/29 04:51:04;;;;;;;;;11.50;8.00;;;;;;;;114889;1203;24857;-55
2022/11/29 04:53:38;;;;;;;;;11.50;6.75;;;;;;;;114881;1208;25299;-55
2022/11/29 04:56:10;;;;;;;;;9.00;7.00;;;;;;;;114921;1203;25033;-54
2022/11/29 04:58:54;;;;;;;;;7.00;6.00;;;;;;;;114885;1200;25005;-55
2022/11/29 05:01:31;;;;;;;;;10.00;10.00;;;;;;;;114848;1201;25211;-55
2022/11/29 05:04:16;;;;;;;;;12.00;9.00;;;;;;;;114900;1203;25088;-56
2022/11/29 05:07:06;;;;;;;;;10.00;7.00;;;;;;;;114938;1206;25498;-56
2022/11/29 05:09:51;;;;;;;;;7.00;6.00;;;;;;;;114891;1208;25046;-56
2022/11/29 05:12:37;;;;;;;;;6.00;6.00;;;;;;;;114896;1201;25276;-55
2022/11/29 05:15:29;;;;;;;;;10.00;7.50;;;;;;;;114941;1199;25452;-55
2022/11/29 05:18:25;;;;;;;;;7.00;7.00;;;;;;;;114950;1207;25256;-55
2022/11/29 05:21:13;;;;;;;;;5.00;5.00;;;;;;;;114904;1204;25323;-55
2022/11/29 05:23:57;;;;;;;;;8.00;7.00;;;;;;;;114959;1200;25271;-55
2022/11/29 05:26:32;;;;;;;;;8.00;8.00;;;;;;;;114891;1202;24904;-56
2022/11/29 05:29:10;;;;;;;;;7.00;6.00;;;;;;;;114928;1203;24894;-56
2022/11/29 05:32:10;;;;;;;;;7.67;7.00;;;;;;;;114872;1198;25724;-55
2022/11/29 05:34:51;;;;;;;;;5.67;5.33;;;;;;;;114913;1204;25594;-55
2022/11/29 05:38:00;;;;;;;;;8.00;7.33;;;;;;;;114851;1204;24787;-55
2022/11/29 05:41:07;;;;;;;;;8.00;7.50;;;;;;;;114762;1208;24830;-56
2022/11/29 05:43:54;;;;;;;;;8.00;6.00;;;;;;;;114880;1207;25171;-56
2022/11/29 05:46:48;;;;;;;;;6.00;6.00;;;;;;;;114928;1200;25232;-55
2022/11/29 05:49:35;;;;;;;;;10.00;9.50;;;;;;;;114913;1203;25553;-56
2022/11/29 05:52:23;;;;;;;;;4.00;3.00;;;;;;;;114859;1199;25137;-55
2022/11/29 05:55:13;;;;;;;;;5.00;5.00;;;;;;;;114869;1200;25257;-55
2022/11/29 05:57:44;;;;;;;;;8.50;5.00;;;;;;;;114859;1206;25071;-55
2022/11/29 06:00:15;;;;;;;;;5.00;5.00;;;;;;;;114927;1201;25389;-55
2022/11/29 06:03:02;;;;;;;;;10.67;5.33;;;;;;;;114806;1203;25556;-55
2022/11/29 06:05:59;;;;;;;;;8.00;7.00;;;;;;;;114852;1206;25485;-55
2022/11/29 06:08:40;;;;;;;;;7.00;6.00;;;;;;;;114863;1201;25301;-57
2022/11/29 06:11:22;;;;;;;;;6.00;6.00;;;;;;;;114914;1208;25307;-55
2022/11/29 06:14:28;;;;;;;;;6.50;6.00;;;;;;;;114892;1208;25468;-55
2022/11/29 06:17:27;;;;;;;;;9.00;7.00;;;;;;;;114950;1199;25097;-56
2022/11/29 06:20:33;;;;;;;;;7.67;6.33;;;;;;;;114913;1203;25493;-55
2022/11/29 06:23:11;;;;;;;;;11.67;7.33;;;;;;;;114875;1203;25458;-56
2022/11/29 06:26:06;;;;;;;;;14.00;9.50;;;;;;;;114887;1197;24800;-55
2022/11/29 06:28:37;;;;;;;;;7.50;7.50;;;;;;;;114916;1196;24853;-55
2022/11/29 06:31:17;;;;;;;;;17.00;14.00;;;;;;;;114960;1198;25054;-56
2022/11/29 06:33:49;;;;;;;;;13.00;9.00;;;;;;;;114886;1196;25600;-55
2022/11/29 06:36:37;;;;;;;;;15.00;13.00;;;;;;;;114966;1200;25195;-56
2022/11/29 06:39:06;;;;;;;;;17.00;8.00;;;;;;;;114898;1200;24754;-56
2022/11/29 06:41:34;;;;;;;;;14.00;11.00;;;;;;;;114848;1200;25519;-56
2022/11/29 06:44:04;;;;;;;;;14.00;11.00;;;;;;;;114922;1200;25633;-55
2022/11/29 06:46:45;;;;;;;;;13.25;10.50;;;;;;;;114879;1196;25385;-54
2022/11/29 06:49:28;;;;;;;;;15.50;7.00;;;;;;;;114919;1203;24797;-63
2022/11/29 06:52:28;;;;;;;;;19.50;10.00;;;;;;;;114910;1200;24731;-62
2022/11/29 06:55:16;;;;;;;;;15.50;9.50;;;;;;;;114732;1206;25098;-57
2022/11/29 06:58:40;;;;;;;;;10.75;7.50;;;;;;;;114849;1203;25613;-56
2022/11/29 07:01:14;;;;;;;;;;;;;;;;;;114675;1211;25500;-55
2022/11/29 07:03:45;;;;;;;;;12.00;7.50;;;;;;;;114740;1208;25537;-57
2022/11/29 07:06:20;;;;;;;;;11.00;9.33;;;;;;;;114951;1203;25063;-58
2022/11/29 07:08:54;;;;;;;;;10.33;7.00;;;;;;;;114803;1204;25523;-58
2022/11/29 07:11:22;;;;;;;;;12.00;11.00;;;;;;;;114915;1206;24913;-60
2022/11/29 07:13:51;;;;;;;;;11.00;8.00;;;;;;;;114909;1199;24742;-58
2022/11/29 07:16:52;;;;;;;;;10.50;8.50;;;;;;;;114908;1194;24998;-57
2022/11/29 07:19:54;;;;;;;;;12.00;8.00;;;;;;;;114869;1200;24952;-58
2022/11/29 07:22:39;;;;;;;;;13.00;8.50;;;;;;;;114922;1196;25594;-57
2022/11/29 07:25:34;;;;;;;;;13.00;9.00;;;;;;;;114837;1200;25147;-56
2022/11/29 07:28:21;;;;;;;;;11.00;6.00;;;;;;;;114967;1203;25076;-57
2022/11/29 07:31:11;;;;;;;;;11.00;7.00;;;;;;;;114892;1194;25028;-57
2022/11/29 07:34:03;;;;;;;;;10.00;8.00;;;;;;;;114885;1203;24680;-57
2022/11/29 07:37:08;;;;;;;;;10.25;8.75;;;;;;;;114852;1207;25404;-56
2022/11/29 07:39:36;;;;;;;;;10.00;8.00;;;;;;;;114935;1204;25580;-55
2022/11/29 07:42:18;;;;;;;;;11.00;6.00;;;;;;;;114752;1195;25236;-58
2022/11/29 07:45:17;;;;;;;;;18.50;11.00;;;;;;;;114888;1203;25354;-58
2022/11/29 07:47:45;;;;;;;;;21.50;10.00;;;;;;;;114829;1203;25406;-56
2022/11/29 07:50:14;;;;;;;;;9.00;9.00;;;;;;;;114783;1200;26411;-58
2022/11/29 07:52:43;;;;;;;;;18.00;9.00;;;;;;;;114934;1201;25283;-56
2022/11/29 07:55:13;;;;;;;;;18.33;9.33;;;;;;;;114879;1200;24844;-57
2022/11/29 07:57:49;;;;;;;;;13.00;10.00;;;;;;;;114961;1200;24822;-57
2022/11/29 08:00:19;;;;;;;;;10.00;8.00;;;;;;;;114927;1200;25574;-57
2022/11/29 08:02:48;;;;;;;;;16.00;9.00;;;;;;;;114903;1203;25734;-56
2022/11/29 08:05:17;;;;;;;;;11.67;7.00;;;;;;;;114928;1200;25258;-56
2022/11/29 08:07:46;;;;;;;;;13.00;8.00;;;;;;;;114888;1208;24748;-56
2022/11/29 08:10:16;;;;;;;;;9.50;9.00;;;;;;;;114914;1203;25534;-57
2022/11/29 08:12:48;;;;;;;;;11.50;9.00;;;;;;;;114836;1203;25174;-57
2022/11/29 08:15:21;;;;;;;;;7.50;7.00;;;;;;;;114931;1200;25274;-57
2022/11/29 08:17:49;;;;;;;;;11.00;10.00;;;;;;;;114875;1206;26303;-57
2022/11/29 08:20:18;;;;;;;;;13.67;6.00;;;;;;;;114926;1200;25416;-57
2022/11/29 08:22:57;;;;;;;;;14.00;8.67;;;;;;;;114946;1207;24933;-58
2022/11/29 08:25:26;;;;;;;;;15.00;10.00;;;;;;;;114810;1198;25765;-56
2022/11/29 08:27:55;;;;;;;;;12.50;7.00;;;;;;;;114871;1200;24765;-57
2022/11/29 08:30:23;;;;;;;;;8.00;5.00;;;;;;;;114832;1204;25493;-58
2022/11/29 08:32:52;;;;;;;;;14.00;10.00;;;;;;;;114880;1208;25443;-58
2022/11/29 08:35:22;;;;;;;;;13.00;6.00;;;;;;;;114921;1197;25283;-58
2022/11/29 08:37:50;;;;;;;;;16.00;9.50;;;;;;;;114934;1194;25676;-57
2022/11/29 08:40:19;;;;;;;;;12.00;9.00;;;;;;;;114911;1203;26261;-58
2022/11/29 08:42:47;;;;;;;;;15.00;10.00;;;;;;;;114879;1203;25342;-56
2022/11/29 08:45:16;;;;;;;;;17.50;9.50;;;;;;;;114931;1200;25045;-56
2022/11/29 08:47:44;;;;;;;;;18.00;11.00;;;;;;;;114916;1200;25521;-57
2022/11/29 08:50:15;;;;;;;;;15.00;10.00;;;;;;;;114920;1203;25674;-57
2022/11/29 08:55:41;;;;;;;;;14.00;11.00;;;;;;;;114815;1200;25134;-56
2022/11/29 08:58:12;;;;;;;;;9.00;5.00;;;;;;;;114817;1200;25260;-62
2022/11/29 09:00:44;;;;;;;;;10.00;8.50;;;;;;;;114841;1196;25562;-62
2022/11/29 09:06:19;;;;;;;;;23.00;12.33;;;;;;;;114790;1203;25009;-66
2022/11/29 09:08:48;;;;;;;;;19.00;12.00;;;;;;;;114876;1200;26400;-63
2022/11/29 09:11:19;;;;;;;;;18.50;11.50;;;;;;;;114873;1203;25296;-62
2022/11/29 09:13:50;;;;;;;;;16.00;11.00;;;;;;;;114806;1208;25521;-62
2022/11/29 09:16:22;;;;;;;;;17.00;10.00;;;;;;;;114822;1206;25487;-62
2022/11/29 09:18:53;;;;;;;;;15.00;10.00;;;;;;;;114967;1200;24768;-61
2022/11/29 09:21:23;;;;;;;;;17.50;14.00;;;;;;;;114843;1199;24824;-61
2022/11/29 09:23:57;;;;;;;;;18.33;12.67;;;;;;;;114883;1206;24872;-61
2022/11/29 09:26:29;;;;;;;;;16.50;12.00;;;;;;;;114950;1206;25314;-61
2022/11/29 09:29:00;;;;;;;;;26.00;13.00;;;;;;;;114893;1198;25319;-60
2022/11/29 09:31:29;;;;;;;;;19.00;14.00;;;;;;;;114908;1203;25022;-60
2022/11/29 09:33:58;;;;;;;;;17.33;14.33;;;;;;;;114903;1199;25104;-61
2022/11/29 09:36:28;;;;;;;;;18.00;12.50;;;;;;;;114921;1200;25437;-61
2022/11/29 09:38:58;;;;;;;;;20.50;11.00;;;;;;;;114787;1200;25494;-61
2022/11/29 09:41:45;;;;;;;;;24.50;16.50;;;;;;;;114943;1203;25181;-60
2022/11/29 09:44:31;;;;;;;;;16.00;10.33;;;;;;;;114906;1203;24868;-58
2022/11/29 09:47:26;;;;;;;;;15.50;9.50;;;;;;;;114846;1206;24888;-57
2022/11/29 09:50:04;;;;;;;;;15.00;11.00;;;;;;;;114805;1199;24740;-57
2022/11/29 09:52:53;;;;;;;;;6.00;3.00;;;;;;;;114829;1208;24706;-58
2022/11/29 09:55:32;;;;;;;;;18.50;10.50;;;;;;;;114823;1208;25201;-58
2022/11/29 09:58:02;;;;;;;;;16.75;9.00;;;;;;;;114857;1199;25201;-59
2022/11/29 10:00:35;;;;;;;;;19.50;11.50;;;;;;;;114868;1203;25238;-57
2022/11/29 10:03:13;;;;;;;;;22.25;11.50;;;;;;;;114783;1199;25088;-58
2022/11/29 10:05:49;;;;;;;;;22.00;12.67;;;;;;;;114849;1202;24808;-58
2022/11/29 10:08:30;;;;;;;;;14.50;10.00;;;;;;;;114873;1199;25712;-59
2022/11/29 10:11:20;;;;;;;;;12.00;10.00;;;;;;;;114895;1196;25236;-57
2022/11/29 10:13:55;;;;;;;;;19.00;14.00;;;;;;;;114869;1196;25627;-58
2022/11/29 10:16:30;;;;;;;;;18.00;10.00;;;;;;;;114850;1200;25078;-58
2022/11/29 10:19:51;;;;;;;;;14.75;11.25;;;;;;;;114883;1206;26212;-56
2022/11/29 10:22:43;;;;;;;;;19.00;11.00;;;;;;;;114783;1203;25750;-57
2022/11/29 10:25:19;;;;;;;;;17.00;12.00;;;;;;;;114861;1206;25595;-57
2022/11/29 10:27:48;;;;;;;;;16.00;10.00;;;;;;;;114883;1201;25138;-57
2022/11/29 10:30:17;;;;;;;;;18.00;10.50;;;;;;;;114772;1196;24649;-59
2022/11/29 10:32:50;;;;;;;;;7.00;7.00;;;;;;;;114986;1203;25263;-59
2022/11/29 10:35:19;;;;;;;;;17.00;13.00;;;;;;;;114818;1203;25601;-60
2022/11/29 10:37:50;;;;;;;;;20.00;15.00;;;;;;;;114824;1199;24680;-58
2022/11/29 10:40:38;;;;;;;;;15.50;11.50;;;;;;;;114836;1200;24990;-57
2022/11/29 10:43:07;;;;;;;;;14.25;8.75;;;;;;;;114816;1200;25940;-57
2022/11/29 10:45:44;;;;;;;;;20.50;11.50;;;;;;;;114752;1201;25044;-58
2022/11/29 10:48:20;;;;;;;;;19.50;12.00;;;;;;;;114875;1204;24800;-58
2022/11/29 10:50:51;;;;;;;;;19.00;12.00;;;;;;;;114752;1193;25134;-58
2022/11/29 10:53:25;;;;;;;;;15.50;10.50;;;;;;;;114796;1208;24877;-58
2022/11/29 10:56:03;;;;;;;;;12.00;10.00;;;;;;;;114863;1200;24826;-58
2022/11/29 10:58:32;;;;;;;;;16.33;9.00;;;;;;;;114824;1200;25392;-59
2022/11/29 11:01:05;;;;;;;;;17.33;10.00;;;;;;;;114843;1200;25370;-58
2022/11/29 11:03:50;;;;;;;;;15.33;10.33;;;;;;;;114805;1200;26294;-57
2022/11/29 11:06:44;;;;;;;;;14.25;10.00;;;;;;;;114865;1200;25553;-58
2022/11/29 11:09:42;;;;;;;;;17.00;10.00;;;;;;;;114846;1200;25623;-57
2022/11/29 11:12:18;;;;;;;;;22.00;14.50;;;;;;;;114929;1208;25503;-57
2022/11/29 11:14:47;;;;;;;;;23.00;11.50;;;;;;;;114844;1200;24687;-57
2022/11/29 11:17:29;;;;;;;;;17.50;9.50;;;;;;;;114812;1206;25305;-57
2022/11/29 11:20:07;;;;;;;;;18.00;10.50;;;;;;;;114845;1200;25050;-57
2022/11/29 11:22:38;;;;;;;;;10.00;8.00;;;;;;;;114884;1205;25179;-58
2022/11/29 11:25:24;;;;;;;;;17.00;11.00;;;;;;;;114815;1200;25722;-58
2022/11/29 11:27:53;;;;;;;;;18.50;12.50;;;;;;;;114854;1199;25436;-59
2022/11/29 11:30:27;;;;;;;;;19.00;12.00;;;;;;;;114899;1197;25356;-57
2022/11/29 11:33:30;;;;;;;;;12.50;10.50;;;;;;;;114817;1200;25304;-57
2022/11/29 11:36:12;;;;;;;;;21.00;10.00;;;;;;;;114876;1208;24791;-57
2022/11/29 11:38:55;;;;;;;;;21.00;11.00;;;;;;;;114846;1208;24864;-58
2022/11/29 11:44:34;;;;;;;;;11.00;8.50;;;;;;;;114879;1203;25232;-58
2022/11/29 11:47:24;;;;;;;;;21.50;10.00;;;;;;;;114828;1203;25347;-58
2022/11/29 11:50:05;;;;;;;;;18.50;10.00;;;;;;;;114878;1203;25608;-58
2022/11/29 11:52:47;;;;;;;;;17.00;9.50;;;;;;;;114901;1199;25585;-58
2022/11/29 11:55:21;;;;;;;;;27.00;10.00;;;;;;;;114905;1202;25846;-56
2022/11/29 11:57:58;;;;;;;;;16.00;7.00;;;;;;;;114963;1200;26019;-57
2022/11/29 12:00:44;;;;;;;;;19.50;11.00;;;;;;;;114927;1203;24787;-57
2022/11/29 12:03:54;;;;;;;;;15.67;10.00;;;;;;;;114872;1208;25527;-57
2022/11/29 12:06:40;;;;;;;;;12.00;8.25;;;;;;;;114888;1199;24929;-57
2022/11/29 12:09:44;;;;;;;;;10.50;7.00;;;;;;;;114823;1200;25648;-57
2022/11/29 12:12:27;;;;;;;;;19.50;9.50;;;;;;;;114905;1206;24744;-55
2022/11/29 12:14:58;;;;;;;;;12.50;9.00;;;;;;;;114920;1203;25325;-56
2022/11/29 12:17:37;;;;;;;;;13.00;7.00;;;;;;;;114903;1206;25583;-57
2022/11/29 12:20:20;;;;;;;;;15.75;7.50;;;;;;;;114858;1200;25258;-57
2022/11/29 12:22:49;;;;;;;;;9.00;8.00;;;;;;;;114875;1203;24827;-56
2022/11/29 12:25:27;;;;;;;;;8.00;7.00;;;;;;;;114932;1199;25469;-57
2022/11/29 12:27:55;;;;;;;;;9.67;7.33;;;;;;;;114917;1203;25545;-57
2022/11/29 12:30:23;;;;;;;;;11.00;8.00;;;;;;;;114791;1208;25319;-57
2022/11/29 12:33:07;;;;;;;;;14.00;9.00;;;;;;;;114884;1207;24990;-57
2022/11/29 12:35:49;;;;;;;;;11.00;8.50;;;;;;;;114953;1197;25026;-57
2022/11/29 12:38:32;;;;;;;;;12.00;9.50;;;;;;;;114956;1200;25338;-57
2022/11/29 12:41:36;;;;;;;;;15.00;8.00;;;;;;;;114948;1201;26024;-57
2022/11/29 12:44:17;;;;;;;;;12.67;9.00;;;;;;;;114888;1200;24863;-57
2022/11/29 12:46:56;;;;;;;;;13.00;11.00;;;;;;;;114882;1198;25736;-58
2022/11/29 12:50:10;;;;;;;;;10.00;9.00;;;;;;;;114918;1208;25646;-58
2022/11/29 12:52:47;;;;;;;;;13.67;8.33;;;;;;;;114917;1204;25641;-57
2022/11/29 12:55:29;;;;;;;;;11.00;5.00;;;;;;;;114903;1197;24927;-57
2022/11/29 12:58:04;;;;;;;;;9.50;7.00;;;;;;;;114957;1196;25578;-58
2022/11/29 13:00:50;;;;;;;;;12.50;10.00;;;;;;;;114903;1204;25240;-57
2022/11/29 13:03:56;;;;;;;;;14.50;9.50;;;;;;;;114925;1201;25432;-58
2022/11/29 13:06:29;;;;;;;;;9.00;9.00;;;;;;;;114873;1208;24960;-57
2022/11/29 13:09:10;;;;;;;;;12.00;7.00;;;;;;;;114893;1200;25407;-57
2022/11/29 13:11:58;;;;;;;;;12.50;7.50;;;;;;;;114907;1208;24694;-56
2022/11/29 13:14:51;;;;;;;;;10.67;8.67;;;;;;;;114898;1200;25173;-56
2022/11/29 13:17:26;;;;;;;;;9.00;6.00;;;;;;;;114905;1206;25643;-56
2022/11/29 13:19:58;;;;;;;;;10.00;8.00;;;;;;;;114916;1200;26235;-59
2022/11/29 13:22:45;;;;;;;;;7.50;6.00;;;;;;;;114827;1203;25167;-59
2022/11/29 13:25:22;;;;;;;;;11.00;9.00;;;;;;;;114897;1203;25036;-57
2022/11/29 13:27:57;;;;;;;;;11.50;9.00;;;;;;;;114848;1199;24877;-57
2022/11/29 13:30:25;;;;;;;;;10.00;7.00;;;;;;;;114895;1208;25269;-58
2022/11/29 13:33:10;;;;;;;;;10.00;8.50;;;;;;;;114831;1206;25070;-58
2022/11/29 13:35:45;;;;;;;;;8.50;7.00;;;;;;;;114870;1199;25030;-58
2022/11/29 13:38:17;;;;;;;;;15.00;9.00;;;;;;;;114878;1201;25617;-58
2022/11/29 13:40:54;;;;;;;;;7.00;6.00;;;;;;;;114897;1200;29276;-57
2022/11/29 13:43:28;;;;;;;;;12.00;8.00;;;;;;;;114845;1200;25100;-56
2022/11/29 13:46:31;;;;;;;;;8.00;7.50;;;;;;;;114931;1203;25291;-57
2022/11/29 13:49:00;;;;;;;;;9.00;8.00;;;;;;;;114917;1203;24963;-57
2022/11/29 13:51:28;;;;;;;;;8.00;5.67;;;;;;;;114881;1208;25155;-58
2022/11/29 13:54:00;;;;;;;;;8.33;6.33;;;;;;;;114938;1200;24728;-57
2022/11/29 13:56:35;;;;;;;;;7.00;6.00;;;;;;;;114851;1200;25291;-57
2022/11/29 13:59:07;;;;;;;;;13.50;7.50;;;;;;;;114818;1208;26022;-58
2022/11/29 14:01:46;;;;;;;;;10.00;9.00;;;;;;;;114911;1203;25498;-57
2022/11/29 14:04:27;;;;;;;;;6.00;4.33;;;;;;;;114843;1196;24727;-58
2022/11/29 14:07:12;;;;;;;;;9.00;7.50;;;;;;;;114926;1204;25259;-57
2022/11/29 14:09:56;;;;;;;;;10.00;6.00;;;;;;;;114915;1200;25164;-58
2022/11/29 14:12:26;;;;;;;;;8.00;7.00;;;;;;;;114899;1200;25491;-60
2022/11/29 14:14:55;;;;;;;;;11.67;8.33;;;;;;;;114928;1199;24781;-63
2022/11/29 14:17:49;;;;;;;;;9.00;6.50;;;;;;;;114932;1199;25424;-68
2022/11/29 14:20:24;;;;;;;;;8.00;7.00;;;;;;;;114840;1208;24967;-66
2022/11/29 14:23:04;;;;;;;;;8.00;6.00;;;;;;;;114890;1200;25258;-60
2022/11/29 14:25:54;;;;;;;;;9.00;8.00;;;;;;;;114895;1203;25622;-60
2022/11/29 14:28:23;;;;;;;;;12.50;6.50;;;;;;;;114892;1200;25470;-59
2022/11/29 14:31:02;;;;;;;;;11.67;7.67;;;;;;;;114898;1200;25114;-60
2022/11/29 14:33:39;;;;;;;;;8.00;7.00;;;;;;;;114937;1199;25256;-58
2022/11/29 14:36:13;;;;;;;;;14.00;8.50;;;;;;;;114827;1204;24888;-58
2022/11/29 14:38:45;;;;;;;;;9.00;5.50;;;;;;;;114873;1200;24962;-59
2022/11/29 14:41:26;;;;;;;;;3.00;3.00;;;;;;;;114869;1208;25289;-59
2022/11/29 14:44:28;;;;;;;;;14.00;6.50;;;;;;;;114925;1204;25239;-61
2022/11/29 14:47:03;;;;;;;;;13.00;5.00;;;;;;;;114940;1199;24974;-60
2022/11/29 14:49:43;;;;;;;;;10.00;7.00;;;;;;;;114825;1196;25546;-60
2022/11/29 14:52:12;;;;;;;;;8.00;6.00;;;;;;;;114846;1206;25060;-60
2022/11/29 14:55:07;;;;;;;;;9.50;5.50;;;;;;;;114925;1200;25059;-59
2022/11/29 14:57:51;;;;;;;;;9.00;7.00;;;;;;;;114879;1203;24852;-57
2022/11/29 15:00:40;;;;;;;;;5.00;5.00;;;;;;;;114882;1200;25025;-57
2022/11/29 15:03:24;;;;;;;;;15.00;9.00;;;;;;;;114924;1203;25131;-57
2022/11/29 15:06:10;;;;;;;;;11.00;9.33;;;;;;;;114885;1198;25205;-57
2022/11/29 15:09:01;;;;;;;;;9.00;7.00;;;;;;;;114879;1199;25558;-57
2022/11/29 15:11:38;;;;;;;;;7.00;6.00;;;;;;;;114734;1200;25594;-57
2022/11/29 15:14:29;;;;;;;;;8.00;6.00;;;;;;;;114858;1196;24926;-59
2022/11/29 15:17:13;;;;;;;;;8.50;7.00;;;;;;;;114895;1200;24913;-58
2022/11/29 15:19:50;;;;;;;;;8.00;6.67;;;;;;;;114873;1204;24752;-58
2022/11/29 15:22:23;;;;;;;;;7.50;5.00;;;;;;;;114829;1208;25218;-56
2022/11/29 15:24:52;;;;;;;;;8.00;7.00;;;;;;;;114842;1200;25400;-57
2022/11/29 15:27:21;;;;;;;;;9.00;7.00;;;;;;;;114886;1196;25416;-56
2022/11/29 15:29:51;;;;;;;;;13.00;10.00;;;;;;;;114893;1199;25276;-56
2022/11/29 15:32:19;;;;;;;;;14.50;7.50;;;;;;;;114811;1200;25220;-56
2022/11/29 15:34:50;;;;;;;;;11.00;8.00;;;;;;;;114917;1203;25221;-56
2022/11/29 15:37:31;;;;;;;;;11.00;9.00;;;;;;;;114885;1203;24705;-56
2022/11/29 15:40:02;;;;;;;;;7.00;7.00;;;;;;;;114898;1203;25091;-57
2022/11/29 15:42:42;;;;;;;;;11.00;7.50;;;;;;;;114901;1207;24684;-56